Estación Meteorológica Peña el Pijo (Robertgarden) [ 08/17/18 05:40:33 CEST ]

Fecha Hora Presion(HPa) Temp (°C) Humedad % Rocio (°C) Viento ( m/s) Direccion Lluvia 1Hora(mm) Lluvia 24H(mm) LLuvia Total(mm)
2018-Jun-05 01:01:53 1006.400 14.0 63 7.1         261.59
2018-Jun-05 02:01:46 1006.300 13.6 64 6.9         261.59
2018-Jun-05 03:01:39 1006.000 13.2 66 7.0         261.59
2018-Jun-05 04:01:39 1005.300 12.8 66 6.6         261.59
2018-Jun-05 05:03:11 1004.900 12.5 67 6.5         261.59
2018-Jun-05 06:01:51 1004.700 12.3 68 6.5         261.59
2018-Jun-05 07:01:48 1004.900 12.3 68 6.5         261.59
2018-Jun-05 08:01:41 1005.300 11.9 70 6.6         261.59
2018-Jun-05 09:02:04 1005.400 12.2 74 7.7         261.59
2018-Jun-05 10:01:53 1005.300 13.3 72 8.3         261.59
2018-Jun-05 11:01:42 1005.100 14.9 62 7.7         261.59
2018-Jun-05 12:01:48 1005.000 18.9 52 8.8         261.59
2018-Jun-05 13:01:50 1004.700 19.9 45 7.6         261.59
2018-Jun-05 14:01:53 1004.300 20.8 42 7.4 0.5 WNW     261.59
2018-Jun-05 15:01:53 1003.700 21.5 40 7.3 0.4 NNW     261.59
2018-Jun-05 16:01:50 1003.400 22.3 41 8.4         261.59
2018-Jun-05 17:01:47 1003.400 22.9 36 6.9         261.59
2018-Jun-05 18:01:37 1003.600 21.8 38 6.8         261.59
2018-Jun-05 19:01:37 1003.500 19.8 41 6.1         261.59
2018-Jun-05 20:01:32 1004.000 17.9 45 5.7         261.59
2018-Jun-05 21:01:52 1004.800 14.4 53 4.9         261.59
2018-Jun-05 22:01:26 1005.200 12.9 58 4.8         261.59
2018-Jun-05 23:01:37 1005.800 12.5 61 5.2         261.59

Temperatura Máxima:22°    Temperatura Mínima:11°
Presión Máxima:1006.400 Hpa    Presión Mínima:1003.400 Hpa


Volver